Apple Creek, Ohio
Current Conditions -  °F | °C
As of 8:56 AM on Friday 28 Nov 2014 (Local Time) from KBJJ Reporting Station
Overcast Overcast  
Wind Chill: -12°   Ceiling: 3200
Heat Index: -6°   Visibility: 10mi
Dew Point: -11°   Wind: 9mph
Humidity: 71%   Direction: 300°WNW
Pressure: 30.35"   Gusts: NA
Location:  40.75°N, 81.84°W
Report Text: KBJJ 281356Z AUTO 30008KT 10SM OVC032 M06/M11 A3035 RMK AO2 SLP294 T10611106 TSNO
Loading
Personal Weather Stations






























Interactive Weather Map New forecast layout! Learn more

10-Day Weather Forecast

Advertisements
Track Severe Weather on mobile